createdAt,value
2019-05-20T00:02:24.721Z,3.70
2019-05-20T00:04:49.330Z,3.70
2019-05-20T00:07:17.928Z,3.02
2019-05-20T00:09:46.518Z,3.50
2019-05-20T00:12:15.103Z,3.27
2019-05-20T00:14:46.657Z,3.85
2019-05-20T00:17:16.105Z,2.80
2019-05-20T00:19:44.771Z,3.58
2019-05-20T00:22:17.203Z,2.98
2019-05-20T00:24:47.145Z,2.87
2019-05-20T00:27:15.860Z,2.83
2019-05-20T00:29:44.563Z,2.75
2019-05-20T00:32:13.197Z,2.62
2019-05-20T00:34:41.675Z,2.62
2019-05-20T00:37:10.222Z,2.50
2019-05-20T00:39:38.730Z,2.50
2019-05-20T00:42:07.365Z,2.77
2019-05-20T00:44:37.629Z,2.47
2019-05-20T00:47:06.307Z,2.58
2019-05-20T00:49:34.969Z,2.50
2019-05-20T00:52:03.520Z,2.50
2019-05-20T00:54:32.083Z,2.52
2019-05-20T00:57:00.662Z,2.22
2019-05-20T00:59:29.101Z,2.42
2019-05-20T01:01:59.118Z,3.10
2019-05-20T01:04:27.583Z,2.42
2019-05-20T01:06:56.150Z,2.77
2019-05-20T01:09:26.322Z,2.65
2019-05-20T01:11:55.141Z,2.83
2019-05-20T01:14:23.732Z,3.30
2019-05-20T01:16:52.356Z,2.42
2019-05-20T01:19:22.502Z,2.90
2019-05-20T01:21:51.023Z,2.77
2019-05-20T01:24:19.459Z,2.70
2019-05-20T01:26:50.834Z,2.40
2019-05-20T01:29:19.374Z,2.70
2019-05-20T01:31:47.857Z,3.00
2019-05-20T01:34:16.423Z,3.00
2019-05-20T01:36:45.086Z,2.77
2019-05-20T01:39:13.667Z,2.72
2019-05-20T01:41:42.178Z,3.10
2019-05-20T01:44:10.803Z,3.20
2019-05-20T01:46:39.340Z,3.75
2019-05-20T01:49:07.899Z,2.80
2019-05-20T01:51:36.527Z,3.25
2019-05-20T01:54:05.154Z,3.50
2019-05-20T01:56:33.678Z,4.05
2019-05-20T01:59:02.258Z,3.90
2019-05-20T02:01:30.815Z,4.50
2019-05-20T02:03:59.358Z,4.17
2019-05-20T02:06:27.985Z,4.72
2019-05-20T02:08:56.466Z,5.22
2019-05-20T02:11:25.356Z,5.15
2019-05-20T02:13:55.578Z,5.17
2019-05-20T02:16:25.735Z,5.90
2019-05-20T02:18:54.225Z,5.65
2019-05-20T02:21:22.898Z,6.40
2019-05-20T02:23:51.408Z,6.15
2019-05-20T02:26:20.043Z,6.20
2019-05-20T02:28:48.500Z,6.65
2019-05-20T02:31:17.022Z,6.45
2019-05-20T02:33:51.616Z,6.37
2019-05-20T02:36:15.975Z,6.22
2019-05-20T02:38:44.839Z,6.78
2019-05-20T02:41:13.361Z,6.33
2019-05-20T02:43:41.855Z,5.95
2019-05-20T02:46:10.396Z,6.90
2019-05-20T02:48:38.976Z,6.33
2019-05-20T02:51:07.701Z,6.62
2019-05-20T02:53:36.237Z,7.08
2019-05-20T02:56:04.886Z,7.08
2019-05-20T02:58:33.444Z,7.40
2019-05-20T03:01:02.009Z,6.90
2019-05-20T03:03:30.538Z,7.97
2019-05-20T03:05:59.020Z,8.00
2019-05-20T03:08:27.469Z,8.68
2019-05-20T03:10:56.010Z,8.43
2019-05-20T03:13:24.456Z,8.95
2019-05-20T03:15:53.014Z,9.23
2019-05-20T03:18:21.555Z,9.13
2019-05-20T03:20:50.116Z,10.10
2019-05-20T03:23:18.553Z,10.03
2019-05-20T03:25:47.257Z,10.65
2019-05-20T03:28:15.796Z,11.55
2019-05-20T03:30:44.297Z,10.82
2019-05-20T03:33:13.083Z,11.63
2019-05-20T03:35:41.715Z,11.50
2019-05-20T03:38:10.323Z,11.63
2019-05-20T03:40:38.829Z,11.70
2019-05-20T03:43:07.353Z,12.25
2019-05-20T03:45:35.924Z,12.85
2019-05-20T03:48:05.276Z,12.58
2019-05-20T03:50:33.799Z,12.30
2019-05-20T03:53:02.316Z,14.20
2019-05-20T03:55:30.839Z,13.45
2019-05-20T03:57:59.445Z,14.70
2019-05-20T04:00:47.111Z,13.48
2019-05-20T04:03:16.500Z,11.83
2019-05-20T04:05:45.580Z,12.13
2019-05-20T04:08:14.247Z,11.85
2019-05-20T04:10:42.978Z,12.23
2019-05-20T04:13:11.674Z,13.80
2019-05-20T04:15:40.118Z,12.88
2019-05-20T04:18:08.885Z,14.50
2019-05-20T04:20:37.405Z,11.48
2019-05-20T04:23:06.111Z,12.37
2019-05-20T04:25:36.188Z,12.63
2019-05-20T04:28:05.115Z,14.23
2019-05-20T04:30:34.231Z,16.32
2019-05-20T04:33:03.601Z,13.55
2019-05-20T04:35:32.127Z,14.90
2019-05-20T04:38:00.667Z,13.45
2019-05-20T04:40:29.260Z,15.30
2019-05-20T04:42:57.780Z,13.38
2019-05-20T04:45:26.289Z,15.45
2019-05-20T04:47:54.875Z,14.80
2019-05-20T04:50:23.387Z,13.25
2019-05-20T04:52:51.890Z,14.45
2019-05-20T04:55:20.638Z,14.47
2019-05-20T04:57:49.204Z,14.55
2019-05-20T05:00:20.761Z,14.75
2019-05-20T05:02:49.322Z,14.07
2019-05-20T05:05:17.813Z,14.98
2019-05-20T05:07:46.414Z,15.65
2019-05-20T05:10:15.171Z,15.85
2019-05-20T05:12:43.875Z,15.90
2019-05-20T05:15:13.044Z,15.88
2019-05-20T05:17:41.716Z,17.60
2019-05-20T05:20:17.489Z,15.65
2019-05-20T05:22:40.740Z,15.98
2019-05-20T05:25:09.455Z,16.70
2019-05-20T05:27:38.051Z,16.27
2019-05-20T05:30:07.888Z,14.87
2019-05-20T05:32:42.748Z,16.85
2019-05-20T05:35:13.650Z,16.60
2019-05-20T05:37:42.354Z,14.85
2019-05-20T05:40:11.716Z,16.60
2019-05-20T05:42:40.185Z,13.40
2019-05-20T05:45:09.723Z,18.90
2019-05-20T05:47:38.230Z,16.55
2019-05-20T05:50:07.062Z,17.73
2019-05-20T05:52:35.575Z,17.35
2019-05-20T05:55:06.016Z,16.87
2019-05-20T05:57:34.604Z,17.95
2019-05-20T06:00:04.983Z,15.83
2019-05-20T06:02:33.508Z,18.10
2019-05-20T06:05:02.217Z,17.65
2019-05-20T06:07:32.243Z,16.60
2019-05-20T06:10:00.781Z,16.97
2019-05-20T06:12:29.366Z,15.80
2019-05-20T06:14:57.977Z,16.02
2019-05-20T06:17:26.532Z,17.12
2019-05-20T06:19:55.186Z,19.02
2019-05-20T06:22:23.714Z,17.57
2019-05-20T06:24:52.258Z,16.37
2019-05-20T06:27:20.911Z,18.35
2019-05-20T06:29:49.380Z,18.55
2019-05-20T06:32:18.069Z,17.50
2019-05-20T06:34:46.683Z,15.68
2019-05-20T06:37:19.873Z,17.32
2019-05-20T06:39:51.123Z,18.62
2019-05-20T06:42:18.816Z,16.55
2019-05-20T06:44:53.071Z,16.12
2019-05-20T06:47:17.822Z,16.25
2019-05-20T06:49:46.383Z,17.30
2019-05-20T06:52:15.163Z,14.78
2019-05-20T06:54:43.606Z,15.93
2019-05-20T06:57:12.315Z,16.52
2019-05-20T06:59:41.414Z,16.82
2019-05-20T07:02:10.076Z,15.10
2019-05-20T07:04:38.566Z,12.82
2019-05-20T07:07:19.962Z,12.37
2019-05-20T07:09:37.400Z,14.05
2019-05-20T07:12:06.042Z,13.93
2019-05-20T07:14:34.537Z,15.55
2019-05-20T07:17:03.265Z,13.53
2019-05-20T07:19:31.810Z,14.07
2019-05-20T07:22:00.462Z,13.88
2019-05-20T07:24:28.988Z,17.23
2019-05-20T07:26:57.452Z,15.30
2019-05-20T07:29:26.173Z,15.75
2019-05-20T07:31:54.699Z,16.42
2019-05-20T07:34:23.196Z,15.70
2019-05-20T07:37:02.547Z,15.70
2019-05-20T07:39:22.175Z,17.30
2019-05-20T07:41:50.845Z,15.23
2019-05-20T07:44:19.668Z,15.00
2019-05-20T07:46:48.365Z,15.20
2019-05-20T07:49:17.294Z,16.20
2019-05-20T07:51:45.970Z,17.98
2019-05-20T07:54:18.950Z,16.17
2019-05-20T07:56:50.523Z,15.90
2019-05-20T07:59:22.186Z,16.37
2019-05-20T08:01:50.962Z,15.03
2019-05-20T08:04:19.688Z,16.00
2019-05-20T08:06:48.348Z,16.93
2019-05-20T08:09:17.063Z,13.70
2019-05-20T08:11:45.544Z,16.12
2019-05-20T08:14:14.274Z,15.03
2019-05-20T08:16:42.784Z,17.15
2019-05-20T08:19:11.426Z,14.90
2019-05-20T08:21:40.296Z,15.03
2019-05-20T08:24:08.859Z,14.53
2019-05-20T08:26:37.515Z,13.62
2019-05-20T08:29:06.128Z,13.70
2019-05-20T08:31:34.669Z,14.75
2019-05-20T08:34:03.507Z,15.83
2019-05-20T08:36:32.228Z,16.70
2019-05-20T08:39:00.905Z,15.75
2019-05-20T08:41:29.527Z,16.15
2019-05-20T08:43:58.335Z,14.58
2019-05-20T08:46:26.865Z,14.98
2019-05-20T08:48:55.598Z,15.70
2019-05-20T08:51:24.263Z,15.88
2019-05-20T08:53:52.796Z,15.00
2019-05-20T08:56:21.341Z,14.70
2019-05-20T08:58:49.846Z,13.05
2019-05-20T09:01:18.502Z,14.75
2019-05-20T09:03:47.050Z,14.98
2019-05-20T09:06:20.247Z,16.52
2019-05-20T09:08:45.963Z,13.90
2019-05-20T09:11:14.686Z,14.13
2019-05-20T09:13:43.284Z,16.45
2019-05-20T09:16:12.177Z,16.62
2019-05-20T09:18:40.770Z,14.30
2019-05-20T09:21:09.383Z,15.38
2019-05-20T09:23:38.034Z,15.45
2019-05-20T09:26:06.597Z,14.65
2019-05-20T09:28:35.126Z,15.25
2019-05-20T09:31:03.940Z,14.55
2019-05-20T09:33:32.567Z,16.48
2019-05-20T09:36:03.081Z,15.72
2019-05-20T09:38:31.793Z,13.93
2019-05-20T09:41:00.474Z,15.18
2019-05-20T09:43:29.035Z,14.38
2019-05-20T09:46:07.503Z,14.85
2019-05-20T09:48:27.776Z,12.18
2019-05-20T09:50:56.254Z,14.40
2019-05-20T09:53:24.888Z,13.45
2019-05-20T09:55:53.426Z,13.78
2019-05-20T09:58:21.944Z,12.60
2019-05-20T10:00:50.475Z,13.28
2019-05-20T10:03:19.133Z,16.05
2019-05-20T10:05:48.885Z,12.55
2019-05-20T10:08:17.527Z,15.53
2019-05-20T10:10:46.068Z,14.03
2019-05-20T10:13:15.866Z,15.35
2019-05-20T10:15:44.369Z,15.60
2019-05-20T10:18:12.963Z,14.60
2019-05-20T10:20:41.829Z,13.80
2019-05-20T10:23:10.410Z,13.45
2019-05-20T10:25:39.013Z,12.43
2019-05-20T10:28:07.702Z,16.02
2019-05-20T10:30:36.385Z,13.10
2019-05-20T10:33:09.643Z,12.50
2019-05-20T10:35:35.394Z,11.05
2019-05-20T10:38:04.208Z,13.03
2019-05-20T10:40:32.904Z,12.68
2019-05-20T10:43:01.582Z,13.85
2019-05-20T10:45:30.215Z,13.08
2019-05-20T10:47:58.878Z,14.05
2019-05-20T10:50:28.249Z,13.10
2019-05-20T10:52:56.928Z,14.00
2019-05-20T10:55:27.047Z,12.70
2019-05-20T10:57:55.608Z,13.72
2019-05-20T11:00:25.860Z,13.40
2019-05-20T11:02:54.447Z,12.73
2019-05-20T11:05:23.043Z,13.53
2019-05-20T11:07:53.947Z,13.90
2019-05-20T11:10:22.823Z,15.50
2019-05-20T11:12:51.481Z,14.33
2019-05-20T11:15:20.426Z,16.75
2019-05-20T11:17:48.893Z,16.77
2019-05-20T11:20:19.444Z,15.43
2019-05-20T11:22:48.011Z,15.63
2019-05-20T11:25:16.940Z,15.78
2019-05-20T11:27:45.502Z,16.75
2019-05-20T11:30:14.393Z,15.03
2019-05-20T11:32:42.957Z,16.60
2019-05-20T11:35:13.392Z,14.25
2019-05-20T11:37:45.931Z,17.23
2019-05-20T11:40:15.248Z,16.52
2019-05-20T11:42:45.514Z,18.10
2019-05-20T11:45:15.763Z,18.67
2019-05-20T11:47:44.247Z,14.70
2019-05-20T11:50:13.452Z,19.52
2019-05-20T11:52:42.210Z,19.23
2019-05-20T11:55:10.886Z,17.80
2019-05-20T11:57:39.753Z,19.40
2019-05-20T12:00:09.481Z,20.48
2019-05-20T12:02:38.221Z,21.23
2019-05-20T12:05:08.402Z,21.62
2019-05-20T12:07:36.976Z,21.05
2019-05-20T12:10:10.472Z,20.85
2019-05-20T12:12:39.233Z,18.67
2019-05-20T12:15:09.698Z,21.85
2019-05-20T12:17:38.437Z,21.27
2019-05-20T12:20:10.878Z,20.68
2019-05-20T12:22:38.863Z,21.87
2019-05-20T12:25:08.960Z,19.90
2019-05-20T12:27:37.603Z,20.23
2019-05-20T12:30:07.169Z,22.25
2019-05-20T12:32:35.977Z,18.17
2019-05-20T12:35:07.153Z,23.35
2019-05-20T12:37:35.724Z,25.25
2019-05-20T12:40:07.576Z,22.10
2019-05-20T12:42:35.891Z,19.80
2019-05-20T12:45:06.690Z,22.67
2019-05-20T12:47:35.261Z,26.77
2019-05-20T12:50:04.661Z,23.20
2019-05-20T12:52:33.226Z,20.02
2019-05-20T12:55:07.914Z,27.30
2019-05-20T12:57:32.091Z,26.25
2019-05-20T13:00:00.538Z,25.50
2019-05-20T13:02:29.093Z,30.92
2019-05-20T13:04:57.537Z,24.85
2019-05-20T13:07:26.083Z,24.57
2019-05-20T13:09:54.640Z,26.17
2019-05-20T13:12:23.084Z,28.45
2019-05-20T13:14:51.669Z,30.45
2019-05-20T13:17:20.114Z,27.90
2019-05-20T13:19:48.616Z,26.30
2019-05-20T13:22:17.217Z,24.77
2019-05-20T13:24:45.860Z,24.75
2019-05-20T13:27:14.311Z,22.50
2019-05-20T13:29:42.898Z,24.52
2019-05-20T13:32:11.518Z,26.60
2019-05-20T13:34:40.016Z,22.10
2019-05-20T13:37:08.480Z,25.02
2019-05-20T13:39:39.102Z,23.83
2019-05-20T13:42:07.633Z,25.52
2019-05-20T13:44:36.173Z,23.75
2019-05-20T13:47:05.065Z,26.95
2019-05-20T13:49:33.550Z,25.10
2019-05-20T13:52:02.391Z,26.35
2019-05-20T13:54:31.082Z,23.25
2019-05-20T13:56:59.671Z,29.20
2019-05-20T13:59:28.278Z,21.07
2019-05-20T14:01:56.827Z,23.30
2019-05-20T14:04:25.456Z,23.00
2019-05-20T14:06:54.065Z,23.25
2019-05-20T14:09:22.703Z,19.80
2019-05-20T14:11:51.408Z,24.32
2019-05-20T14:14:20.831Z,18.02
2019-05-20T14:16:49.369Z,18.50
2019-05-20T14:19:17.931Z,18.02
2019-05-20T14:21:46.583Z,16.48
2019-05-20T14:24:15.245Z,15.30
2019-05-20T14:26:44.136Z,17.07
2019-05-20T14:29:14.733Z,15.23
2019-05-20T14:31:43.035Z,13.45
2019-05-20T14:34:14.343Z,11.80
2019-05-20T14:36:42.965Z,12.47
2019-05-20T14:39:16.041Z,12.13
2019-05-20T14:41:44.667Z,10.35
2019-05-20T14:44:14.475Z,11.88
2019-05-20T14:46:42.971Z,11.03
2019-05-20T14:49:11.519Z,11.35
2019-05-20T14:51:40.150Z,10.55
2019-05-20T14:54:08.963Z,12.65
2019-05-20T14:56:37.550Z,12.28
2019-05-20T14:59:06.100Z,12.37
2019-05-20T15:01:36.487Z,12.93
2019-05-20T15:04:05.199Z,8.83
2019-05-20T15:06:33.719Z,10.15
2019-05-20T15:09:02.278Z,11.93
2019-05-20T15:11:38.091Z,11.60
2019-05-20T15:14:01.098Z,12.33
2019-05-20T15:16:29.757Z,15.38
2019-05-20T15:19:01.244Z,13.13
2019-05-20T15:21:29.923Z,14.20
2019-05-20T15:24:01.598Z,15.72
2019-05-20T15:26:32.093Z,15.80
2019-05-20T15:29:00.529Z,15.48
2019-05-20T15:31:29.234Z,21.27
2019-05-20T15:33:59.353Z,20.90
2019-05-20T15:36:27.868Z,23.07
2019-05-20T15:38:56.370Z,22.52
2019-05-20T15:41:24.894Z,20.48
2019-05-20T15:43:53.474Z,19.32
2019-05-20T15:46:26.823Z,18.02
2019-05-20T15:48:55.332Z,13.62
2019-05-20T15:51:25.941Z,14.73
2019-05-20T15:53:54.747Z,15.13
2019-05-20T15:56:23.423Z,12.18
2019-05-20T15:58:52.023Z,14.87
2019-05-20T16:01:20.486Z,12.37
2019-05-20T16:03:51.438Z,14.95
2019-05-20T16:06:19.508Z,14.38
2019-05-20T16:08:48.044Z,15.20
2019-05-20T16:11:16.759Z,15.70
2019-05-20T16:13:45.374Z,15.35
2019-05-20T16:16:14.007Z,16.40
2019-05-20T16:18:42.515Z,14.50
2019-05-20T16:21:11.234Z,16.85
2019-05-20T16:23:39.788Z,18.60
2019-05-20T16:26:08.331Z,17.07
2019-05-20T16:28:36.808Z,16.27
2019-05-20T16:31:05.362Z,17.92
2019-05-20T16:33:33.980Z,17.57
2019-05-20T16:36:02.621Z,17.52
2019-05-20T16:38:31.205Z,16.95
2019-05-20T16:41:00.966Z,15.78
2019-05-20T16:43:29.520Z,13.32
2019-05-20T16:45:58.087Z,18.70
2019-05-20T16:48:26.629Z,17.27
2019-05-20T16:50:55.223Z,17.73
2019-05-20T16:53:23.704Z,17.80
2019-05-20T16:55:52.309Z,16.77
2019-05-20T16:58:20.890Z,15.98
2019-05-20T17:00:49.365Z,16.85
2019-05-20T17:03:17.846Z,17.37
2019-05-20T17:05:46.352Z,19.25
2019-05-20T17:08:14.920Z,20.32
2019-05-20T17:10:43.394Z,19.70
2019-05-20T17:13:11.868Z,17.80
2019-05-20T17:15:40.515Z,17.20
2019-05-20T17:18:08.987Z,15.48
2019-05-20T17:20:37.969Z,18.45
2019-05-20T17:23:06.561Z,22.50
2019-05-20T17:25:35.597Z,17.98
2019-05-20T17:28:04.207Z,21.15
2019-05-20T17:30:44.494Z,20.62
2019-05-20T17:33:03.333Z,17.07
2019-05-20T17:35:31.945Z,20.10
2019-05-20T17:38:00.688Z,21.17
2019-05-20T17:40:29.443Z,17.23
2019-05-20T17:42:58.095Z,18.87
2019-05-20T17:45:26.739Z,18.10
2019-05-20T17:47:55.601Z,16.27
2019-05-20T17:50:24.224Z,17.70
2019-05-20T17:52:52.964Z,17.82
2019-05-20T17:55:21.568Z,17.92
2019-05-20T17:57:50.099Z,17.98
2019-05-20T18:00:20.484Z,19.95
2019-05-20T18:02:49.293Z,21.15
2019-05-20T18:05:17.943Z,17.67
2019-05-20T18:07:46.704Z,17.80
2019-05-20T18:10:17.565Z,16.95
2019-05-20T18:12:46.356Z,19.52
2019-05-20T18:15:16.750Z,16.70
2019-05-20T18:17:45.671Z,16.30
2019-05-20T18:20:14.515Z,17.85
2019-05-20T18:22:45.288Z,18.30
2019-05-20T18:25:14.304Z,19.80
2019-05-20T18:27:42.999Z,19.77
2019-05-20T18:30:13.496Z,20.45
2019-05-20T18:32:42.376Z,16.57
2019-05-20T18:35:11.352Z,19.32
2019-05-20T18:37:40.087Z,22.02
2019-05-20T18:40:14.416Z,18.07
2019-05-20T18:42:40.003Z,21.77
2019-05-20T18:45:09.185Z,24.12
2019-05-20T18:47:38.053Z,19.23
2019-05-20T18:50:10.321Z,16.12
2019-05-20T18:52:38.935Z,15.38
2019-05-20T18:55:07.698Z,15.03
2019-05-20T18:57:36.439Z,13.25
2019-05-20T19:00:08.335Z,13.30
2019-05-20T19:02:37.062Z,12.05
2019-05-20T19:05:08.797Z,11.25
2019-05-20T19:07:37.626Z,11.30
2019-05-20T19:10:06.817Z,10.93
2019-05-20T19:12:35.376Z,10.82
2019-05-20T19:15:05.428Z,11.00
2019-05-20T19:17:34.119Z,10.13
2019-05-20T19:20:03.248Z,10.15
2019-05-20T19:22:32.030Z,9.58
2019-05-20T19:25:00.871Z,10.55
2019-05-20T19:27:30.038Z,10.70
2019-05-20T19:29:58.752Z,10.50
2019-05-20T19:32:27.865Z,11.40
2019-05-20T19:34:56.613Z,11.38
2019-05-20T19:37:25.423Z,11.53
2019-05-20T19:39:54.346Z,12.05
2019-05-20T19:42:22.866Z,12.50
2019-05-20T19:44:51.609Z,10.35
2019-05-20T19:47:20.172Z,10.28
2019-05-20T19:49:48.715Z,9.70
2019-05-20T19:52:18.630Z,11.28
2019-05-20T19:54:51.932Z,10.25
2019-05-20T19:57:20.638Z,10.90
2019-05-20T19:59:49.338Z,11.65
2019-05-20T20:02:19.004Z,11.20
2019-05-20T20:04:47.714Z,10.65
2019-05-20T20:07:16.699Z,12.13
2019-05-20T20:09:45.330Z,10.68
2019-05-20T20:12:14.115Z,12.63
2019-05-20T20:14:42.828Z,13.65
2019-05-20T20:17:11.813Z,13.00
2019-05-20T20:22:35.889Z,12.13
2019-05-20T20:25:12.132Z,11.75
2019-05-20T20:27:36.571Z,11.20
2019-05-20T20:30:07.531Z,14.23
2019-05-20T20:35:07.128Z,14.78
2019-05-20T20:37:35.740Z,14.65
2019-05-20T20:40:04.744Z,14.45
2019-05-20T20:42:35.056Z,12.88
2019-05-20T20:45:04.512Z,16.23
2019-05-20T20:47:41.333Z,14.83
2019-05-20T20:50:04.769Z,13.30
2019-05-20T20:52:33.375Z,15.68
2019-05-20T20:55:02.216Z,13.35
2019-05-20T20:57:30.802Z,15.90
2019-05-20T20:59:59.554Z,15.68
2019-05-20T21:02:28.247Z,16.20
2019-05-20T21:04:56.787Z,14.60
2019-05-20T21:07:25.528Z,15.18
2019-05-20T21:09:54.003Z,13.40
2019-05-20T21:12:22.643Z,14.05
2019-05-20T21:14:51.340Z,15.55
2019-05-20T21:17:19.903Z,15.53
2019-05-20T21:19:51.257Z,16.67
2019-05-20T21:22:20.009Z,20.08
2019-05-20T21:24:48.511Z,17.95
2019-05-20T21:27:17.135Z,18.50
2019-05-20T21:29:45.706Z,17.95
2019-05-20T21:32:14.554Z,17.27
2019-05-20T21:34:43.177Z,17.35
2019-05-20T21:37:12.161Z,18.65
2019-05-20T21:39:40.756Z,19.15
2019-05-20T21:42:21.470Z,20.10
2019-05-20T21:44:53.102Z,18.30
2019-05-20T21:47:23.297Z,21.37
2019-05-20T21:49:54.219Z,22.60
2019-05-20T21:52:22.951Z,22.15
2019-05-20T21:54:51.839Z,25.00
2019-05-20T21:57:20.441Z,28.65
2019-05-20T21:59:49.193Z,27.37
2019-05-20T22:02:18.060Z,29.52
2019-05-20T22:04:46.629Z,30.30
2019-05-20T22:07:15.201Z,32.33
2019-05-20T22:09:43.902Z,30.30
2019-05-20T22:12:12.456Z,31.02
2019-05-20T22:14:41.020Z,32.00
2019-05-20T22:17:10.104Z,32.67
2019-05-20T22:19:40.208Z,33.85
2019-05-20T22:22:26.704Z,35.73
2019-05-20T22:24:55.265Z,37.65
2019-05-20T22:27:24.000Z,38.17
2019-05-20T22:29:52.743Z,39.63
2019-05-20T22:32:21.527Z,35.30
2019-05-20T22:34:53.873Z,37.25
2019-05-20T22:37:21.886Z,40.12
2019-05-20T22:39:52.121Z,37.25
2019-05-20T22:42:22.397Z,39.80
2019-05-20T22:44:50.889Z,40.07
2019-05-20T22:47:19.408Z,41.77
2019-05-20T22:49:48.348Z,40.15
2019-05-20T22:52:16.882Z,38.38
2019-05-20T22:54:45.402Z,36.98
2019-05-20T22:57:15.457Z,36.50
2019-05-20T22:59:44.219Z,39.03
2019-05-20T23:02:16.048Z,39.48
2019-05-20T23:04:44.631Z,41.02
2019-05-20T23:07:13.198Z,42.83
2019-05-20T23:09:43.254Z,37.78
2019-05-20T23:12:13.350Z,38.28
2019-05-20T23:14:42.131Z,35.90
2019-05-20T23:17:10.941Z,40.70
2019-05-20T23:19:39.794Z,38.05
2019-05-20T23:22:08.348Z,39.58
2019-05-20T23:24:36.936Z,36.98
2019-05-20T23:27:05.591Z,42.20
2019-05-20T23:29:34.180Z,34.30
2019-05-20T23:32:02.707Z,38.73
2019-05-20T23:34:31.234Z,38.90
2019-05-20T23:36:59.836Z,39.25
2019-05-20T23:39:30.003Z,35.92
2019-05-20T23:41:58.571Z,35.60
2019-05-20T23:44:27.170Z,35.63
2019-05-20T23:46:55.690Z,37.55
2019-05-20T23:49:24.216Z,39.67
2019-05-20T23:51:52.752Z,38.65
2019-05-20T23:54:21.353Z,37.85
2019-05-20T23:56:49.847Z,38.33
2019-05-20T23:59:18.632Z,39.30
